sensor_id;sensor_type;location;lat;lon;timestamp;P1;durP1;ratioP1;P2;durP2;ratioP2
56116;SDS011;41989;45.356;20.392;2023-03-05T00:02:25;83.47;;;49.67;;
56116;SDS011;41989;45.356;20.392;2023-03-05T00:04:51;76.80;;;47.38;;
56116;SDS011;41989;45.356;20.392;2023-03-05T00:07:17;78.32;;;45.85;;
56116;SDS011;41989;45.356;20.392;2023-03-05T00:09:43;81.47;;;47.22;;
56116;SDS011;41989;45.356;20.392;2023-03-05T00:12:09;87.22;;;47.25;;
56116;SDS011;41989;45.356;20.392;2023-03-05T00:14:35;64.20;;;37.50;;
56116;SDS011;41989;45.356;20.392;2023-03-05T00:17:01;57.75;;;35.75;;
56116;SDS011;41989;45.356;20.392;2023-03-05T00:19:27;69.47;;;40.05;;
56116;SDS011;41989;45.356;20.392;2023-03-05T00:21:53;57.42;;;34.35;;
56116;SDS011;41989;45.356;20.392;2023-03-05T00:24:20;54.70;;;33.75;;
56116;SDS011;41989;45.356;20.392;2023-03-05T00:26:46;57.15;;;35.42;;
56116;SDS011;41989;45.356;20.392;2023-03-05T00:29:16;60.53;;;32.97;;
56116;SDS011;41989;45.356;20.392;2023-03-05T00:31:42;53.20;;;31.65;;
56116;SDS011;41989;45.356;20.392;2023-03-05T00:34:10;51.75;;;30.17;;
56116;SDS011;41989;45.356;20.392;2023-03-05T00:36:44;54.15;;;31.92;;
56116;SDS011;41989;45.356;20.392;2023-03-05T00:39:11;53.38;;;31.25;;
56116;SDS011;41989;45.356;20.392;2023-03-05T00:41:37;52.92;;;31.75;;
56116;SDS011;41989;45.356;20.392;2023-03-05T00:44:03;51.80;;;31.45;;
56116;SDS011;41989;45.356;20.392;2023-03-05T00:46:30;57.03;;;33.58;;
56116;SDS011;41989;45.356;20.392;2023-03-05T00:48:56;54.20;;;32.78;;
56116;SDS011;41989;45.356;20.392;2023-03-05T00:51:23;61.22;;;36.90;;
56116;SDS011;41989;45.356;20.392;2023-03-05T00:53:49;61.13;;;37.25;;
56116;SDS011;41989;45.356;20.392;2023-03-05T00:56:15;61.92;;;35.75;;
56116;SDS011;41989;45.356;20.392;2023-03-05T00:58:41;61.88;;;33.72;;
56116;SDS011;41989;45.356;20.392;2023-03-05T01:01:08;56.78;;;34.92;;
56116;SDS011;41989;45.356;20.392;2023-03-05T01:03:34;56.95;;;34.65;;
56116;SDS011;41989;45.356;20.392;2023-03-05T01:06:02;57.72;;;34.50;;
56116;SDS011;41989;45.356;20.392;2023-03-05T01:08:29;64.10;;;35.78;;
56116;SDS011;41989;45.356;20.392;2023-03-05T01:10:55;58.58;;;33.33;;
56116;SDS011;41989;45.356;20.392;2023-03-05T01:13:21;60.67;;;34.03;;
56116;SDS011;41989;45.356;20.392;2023-03-05T01:15:47;61.30;;;37.08;;
56116;SDS011;41989;45.356;20.392;2023-03-05T01:18:15;54.53;;;34.72;;
56116;SDS011;41989;45.356;20.392;2023-03-05T01:20:41;52.25;;;30.98;;
56116;SDS011;41989;45.356;20.392;2023-03-05T01:23:07;53.92;;;31.98;;
56116;SDS011;41989;45.356;20.392;2023-03-05T01:25:34;57.25;;;34.22;;
56116;SDS011;41989;45.356;20.392;2023-03-05T01:28:00;60.40;;;35.17;;
56116;SDS011;41989;45.356;20.392;2023-03-05T01:30:26;73.25;;;38.65;;
56116;SDS011;41989;45.356;20.392;2023-03-05T01:32:52;62.63;;;35.72;;
56116;SDS011;41989;45.356;20.392;2023-03-05T01:35:22;55.47;;;32.05;;
56116;SDS011;41989;45.356;20.392;2023-03-05T01:37:49;52.03;;;30.65;;
56116;SDS011;41989;45.356;20.392;2023-03-05T01:40:16;56.13;;;32.30;;
56116;SDS011;41989;45.356;20.392;2023-03-05T01:42:46;52.22;;;31.67;;
56116;SDS011;41989;45.356;20.392;2023-03-05T01:45:14;50.22;;;29.95;;
56116;SDS011;41989;45.356;20.392;2023-03-05T01:47:40;48.70;;;29.48;;
56116;SDS011;41989;45.356;20.392;2023-03-05T01:50:08;45.72;;;28.02;;
56116;SDS011;41989;45.356;20.392;2023-03-05T01:52:36;46.85;;;27.38;;
56116;SDS011;41989;45.356;20.392;2023-03-05T01:55:04;42.17;;;25.52;;
56116;SDS011;41989;45.356;20.392;2023-03-05T02:00:02;41.83;;;23.38;;
56116;SDS011;41989;45.356;20.392;2023-03-05T02:02:29;38.42;;;21.33;;
56116;SDS011;41989;45.356;20.392;2023-03-05T02:04:58;36.65;;;21.92;;
56116;SDS011;41989;45.356;20.392;2023-03-05T02:07:25;35.78;;;20.38;;
56116;SDS011;41989;45.356;20.392;2023-03-05T02:09:52;34.30;;;19.95;;
56116;SDS011;41989;45.356;20.392;2023-03-05T02:12:18;33.72;;;20.17;;
56116;SDS011;41989;45.356;20.392;2023-03-05T02:14:45;35.85;;;20.85;;
56116;SDS011;41989;45.356;20.392;2023-03-05T02:17:11;38.65;;;21.67;;
56116;SDS011;41989;45.356;20.392;2023-03-05T02:19:48;34.88;;;20.85;;
56116;SDS011;41989;45.356;20.392;2023-03-05T02:22:15;36.95;;;21.80;;
56116;SDS011;41989;45.356;20.392;2023-03-05T02:24:41;38.35;;;21.58;;
56116;SDS011;41989;45.356;20.392;2023-03-05T02:27:07;36.95;;;20.63;;
56116;SDS011;41989;45.356;20.392;2023-03-05T02:29:34;36.60;;;21.30;;
56116;SDS011;41989;45.356;20.392;2023-03-05T02:32:05;36.92;;;20.08;;
56116;SDS011;41989;45.356;20.392;2023-03-05T02:34:32;38.40;;;22.10;;
56116;SDS011;41989;45.356;20.392;2023-03-05T02:36:58;34.85;;;19.45;;
56116;SDS011;41989;45.356;20.392;2023-03-05T02:39:26;35.88;;;20.67;;
56116;SDS011;41989;45.356;20.392;2023-03-05T02:41:52;33.15;;;20.17;;
56116;SDS011;41989;45.356;20.392;2023-03-05T02:44:18;34.58;;;19.60;;
56116;SDS011;41989;45.356;20.392;2023-03-05T02:46:45;34.22;;;18.83;;
56116;SDS011;41989;45.356;20.392;2023-03-05T02:49:11;28.98;;;18.40;;
56116;SDS011;41989;45.356;20.392;2023-03-05T02:51:37;28.63;;;17.08;;
56116;SDS011;41989;45.356;20.392;2023-03-05T02:54:03;33.60;;;17.80;;
56116;SDS011;41989;45.356;20.392;2023-03-05T02:56:29;33.40;;;18.30;;
56116;SDS011;41989;45.356;20.392;2023-03-05T02:58:55;26.95;;;16.15;;
56116;SDS011;41989;45.356;20.392;2023-03-05T03:01:21;27.02;;;16.05;;
56116;SDS011;41989;45.356;20.392;2023-03-05T03:03:48;28.77;;;16.58;;
56116;SDS011;41989;45.356;20.392;2023-03-05T03:06:14;28.70;;;14.35;;
56116;SDS011;41989;45.356;20.392;2023-03-05T03:08:40;23.20;;;14.73;;
56116;SDS011;41989;45.356;20.392;2023-03-05T03:11:07;23.33;;;14.20;;
56116;SDS011;41989;45.356;20.392;2023-03-05T03:13:33;23.70;;;14.48;;
56116;SDS011;41989;45.356;20.392;2023-03-05T03:16:01;30.70;;;14.98;;
56116;SDS011;41989;45.356;20.392;2023-03-05T03:18:27;27.75;;;15.80;;
56116;SDS011;41989;45.356;20.392;2023-03-05T03:20:56;19.88;;;13.02;;
56116;SDS011;41989;45.356;20.392;2023-03-05T03:23:22;24.55;;;14.35;;
56116;SDS011;41989;45.356;20.392;2023-03-05T03:25:48;20.08;;;13.15;;
56116;SDS011;41989;45.356;20.392;2023-03-05T03:28:14;19.77;;;13.18;;
56116;SDS011;41989;45.356;20.392;2023-03-05T03:30:40;26.27;;;14.07;;
56116;SDS011;41989;45.356;20.392;2023-03-05T03:33:08;21.65;;;14.05;;
56116;SDS011;41989;45.356;20.392;2023-03-05T03:35:35;24.20;;;14.52;;
56116;SDS011;41989;45.356;20.392;2023-03-05T03:38:01;22.75;;;13.88;;
56116;SDS011;41989;45.356;20.392;2023-03-05T03:40:27;23.05;;;14.30;;
56116;SDS011;41989;45.356;20.392;2023-03-05T03:42:56;21.27;;;14.60;;
56116;SDS011;41989;45.356;20.392;2023-03-05T03:45:24;23.17;;;13.68;;
56116;SDS011;41989;45.356;20.392;2023-03-05T03:47:50;22.80;;;14.23;;
56116;SDS011;41989;45.356;20.392;2023-03-05T03:50:17;25.83;;;14.27;;
56116;SDS011;41989;45.356;20.392;2023-03-05T03:52:45;23.45;;;15.25;;
56116;SDS011;41989;45.356;20.392;2023-03-05T03:55:11;23.92;;;14.70;;
56116;SDS011;41989;45.356;20.392;2023-03-05T03:57:37;21.77;;;13.85;;
56116;SDS011;41989;45.356;20.392;2023-03-05T04:00:04;26.85;;;15.15;;
56116;SDS011;41989;45.356;20.392;2023-03-05T04:02:34;23.38;;;14.32;;
56116;SDS011;41989;45.356;20.392;2023-03-05T04:05:00;24.27;;;15.20;;
56116;SDS011;41989;45.356;20.392;2023-03-05T04:07:27;20.98;;;14.07;;
56116;SDS011;41989;45.356;20.392;2023-03-05T04:09:53;24.25;;;15.55;;
56116;SDS011;41989;45.356;20.392;2023-03-05T04:12:19;25.75;;;15.20;;
56116;SDS011;41989;45.356;20.392;2023-03-05T04:14:46;25.17;;;14.30;;
56116;SDS011;41989;45.356;20.392;2023-03-05T04:17:13;25.27;;;14.48;;
56116;SDS011;41989;45.356;20.392;2023-03-05T04:19:39;24.20;;;14.82;;
56116;SDS011;41989;45.356;20.392;2023-03-05T04:22:09;24.27;;;14.88;;
56116;SDS011;41989;45.356;20.392;2023-03-05T04:24:35;25.70;;;14.70;;
56116;SDS011;41989;45.356;20.392;2023-03-05T04:27:02;26.20;;;17.08;;
56116;SDS011;41989;45.356;20.392;2023-03-05T04:29:28;24.13;;;14.68;;
56116;SDS011;41989;45.356;20.392;2023-03-05T04:31:54;25.85;;;15.07;;
56116;SDS011;41989;45.356;20.392;2023-03-05T04:34:20;23.15;;;15.10;;
56116;SDS011;41989;45.356;20.392;2023-03-05T04:36:46;25.15;;;15.43;;
56116;SDS011;41989;45.356;20.392;2023-03-05T04:39:12;25.25;;;15.73;;
56116;SDS011;41989;45.356;20.392;2023-03-05T04:41:39;26.00;;;15.05;;
56116;SDS011;41989;45.356;20.392;2023-03-05T04:44:05;33.05;;;15.38;;
56116;SDS011;41989;45.356;20.392;2023-03-05T04:46:31;26.02;;;15.23;;
56116;SDS011;41989;45.356;20.392;2023-03-05T04:48:57;25.77;;;15.63;;
56116;SDS011;41989;45.356;20.392;2023-03-05T04:51:23;25.98;;;14.40;;
56116;SDS011;41989;45.356;20.392;2023-03-05T04:53:49;26.15;;;14.80;;
56116;SDS011;41989;45.356;20.392;2023-03-05T04:56:16;27.45;;;15.63;;
56116;SDS011;41989;45.356;20.392;2023-03-05T04:58:42;29.77;;;16.13;;
56116;SDS011;41989;45.356;20.392;2023-03-05T05:01:08;27.88;;;14.90;;
56116;SDS011;41989;45.356;20.392;2023-03-05T05:03:34;29.27;;;16.73;;
56116;SDS011;41989;45.356;20.392;2023-03-05T05:06:00;29.25;;;16.70;;
56116;SDS011;41989;45.356;20.392;2023-03-05T05:08:27;31.15;;;18.05;;
56116;SDS011;41989;45.356;20.392;2023-03-05T05:11:01;33.63;;;17.55;;
56116;SDS011;41989;45.356;20.392;2023-03-05T05:13:27;30.40;;;18.02;;
56116;SDS011;41989;45.356;20.392;2023-03-05T05:15:54;29.83;;;17.13;;
56116;SDS011;41989;45.356;20.392;2023-03-05T05:18:20;29.17;;;16.75;;
56116;SDS011;41989;45.356;20.392;2023-03-05T05:20:46;30.33;;;17.35;;
56116;SDS011;41989;45.356;20.392;2023-03-05T05:23:13;31.52;;;17.17;;
56116;SDS011;41989;45.356;20.392;2023-03-05T05:25:39;34.25;;;18.00;;
56116;SDS011;41989;45.356;20.392;2023-03-05T05:28:05;32.17;;;18.52;;
56116;SDS011;41989;45.356;20.392;2023-03-05T05:30:31;32.00;;;18.27;;
56116;SDS011;41989;45.356;20.392;2023-03-05T05:32:57;27.95;;;17.45;;
56116;SDS011;41989;45.356;20.392;2023-03-05T05:35:26;28.08;;;15.45;;
56116;SDS011;41989;45.356;20.392;2023-03-05T05:37:52;26.63;;;15.75;;
56116;SDS011;41989;45.356;20.392;2023-03-05T05:40:18;33.20;;;17.85;;
56116;SDS011;41989;45.356;20.392;2023-03-05T05:42:44;26.80;;;16.02;;
56116;SDS011;41989;45.356;20.392;2023-03-05T05:45:10;27.17;;;16.20;;
56116;SDS011;41989;45.356;20.392;2023-03-05T05:47:36;28.98;;;15.52;;
56116;SDS011;41989;45.356;20.392;2023-03-05T05:50:03;25.95;;;16.58;;
56116;SDS011;41989;45.356;20.392;2023-03-05T05:52:29;27.05;;;16.38;;
56116;SDS011;41989;45.356;20.392;2023-03-05T05:54:56;22.90;;;15.50;;
56116;SDS011;41989;45.356;20.392;2023-03-05T05:57:22;26.05;;;14.77;;
56116;SDS011;41989;45.356;20.392;2023-03-05T05:59:49;25.45;;;15.73;;
56116;SDS011;41989;45.356;20.392;2023-03-05T06:02:15;25.17;;;15.65;;
56116;SDS011;41989;45.356;20.392;2023-03-05T06:04:41;33.75;;;15.60;;
56116;SDS011;41989;45.356;20.392;2023-03-05T06:07:07;25.63;;;13.10;;
56116;SDS011;41989;45.356;20.392;2023-03-05T06:09:34;25.67;;;13.27;;
56116;SDS011;41989;45.356;20.392;2023-03-05T06:12:03;20.88;;;13.77;;
56116;SDS011;41989;45.356;20.392;2023-03-05T06:14:29;22.05;;;14.45;;
56116;SDS011;41989;45.356;20.392;2023-03-05T06:16:55;22.42;;;14.07;;
56116;SDS011;41989;45.356;20.392;2023-03-05T06:19:21;22.40;;;14.23;;
56116;SDS011;41989;45.356;20.392;2023-03-05T06:21:47;18.98;;;11.43;;
56116;SDS011;41989;45.356;20.392;2023-03-05T06:24:13;15.05;;;11.10;;
56116;SDS011;41989;45.356;20.392;2023-03-05T06:26:40;20.35;;;10.10;;
56116;SDS011;41989;45.356;20.392;2023-03-05T06:29:06;18.25;;;11.90;;
56116;SDS011;41989;45.356;20.392;2023-03-05T06:31:38;21.58;;;14.95;;
56116;SDS011;41989;45.356;20.392;2023-03-05T06:34:04;17.65;;;11.60;;
56116;SDS011;41989;45.356;20.392;2023-03-05T06:36:30;20.10;;;12.88;;
56116;SDS011;41989;45.356;20.392;2023-03-05T06:38:56;25.25;;;15.25;;
56116;SDS011;41989;45.356;20.392;2023-03-05T06:41:27;20.98;;;14.18;;
56116;SDS011;41989;45.356;20.392;2023-03-05T06:43:53;22.13;;;14.82;;
56116;SDS011;41989;45.356;20.392;2023-03-05T06:46:23;19.73;;;13.95;;
56116;SDS011;41989;45.356;20.392;2023-03-05T06:48:50;22.20;;;13.40;;
56116;SDS011;41989;45.356;20.392;2023-03-05T06:51:23;24.05;;;14.57;;
56116;SDS011;41989;45.356;20.392;2023-03-05T06:53:49;23.38;;;14.23;;
56116;SDS011;41989;45.356;20.392;2023-03-05T06:56:16;29.52;;;15.90;;
56116;SDS011;41989;45.356;20.392;2023-03-05T06:58:43;20.88;;;14.18;;
56116;SDS011;41989;45.356;20.392;2023-03-05T07:01:10;23.35;;;15.05;;
56116;SDS011;41989;45.356;20.392;2023-03-05T07:03:36;22.52;;;14.90;;
56116;SDS011;41989;45.356;20.392;2023-03-05T07:06:06;23.58;;;14.98;;
56116;SDS011;41989;45.356;20.392;2023-03-05T07:08:32;20.55;;;14.20;;
56116;SDS011;41989;45.356;20.392;2023-03-05T07:10:59;19.73;;;12.45;;
56116;SDS011;41989;45.356;20.392;2023-03-05T07:13:25;19.75;;;13.00;;
56116;SDS011;41989;45.356;20.392;2023-03-05T07:15:52;21.58;;;13.88;;
56116;SDS011;41989;45.356;20.392;2023-03-05T07:18:18;19.60;;;12.77;;
56116;SDS011;41989;45.356;20.392;2023-03-05T07:20:44;20.95;;;12.85;;
56116;SDS011;41989;45.356;20.392;2023-03-05T07:23:11;23.30;;;13.95;;
56116;SDS011;41989;45.356;20.392;2023-03-05T07:25:37;27.08;;;15.55;;
56116;SDS011;41989;45.356;20.392;2023-03-05T07:28:04;23.50;;;15.15;;
56116;SDS011;41989;45.356;20.392;2023-03-05T07:33:00;18.92;;;13.63;;
56116;SDS011;41989;45.356;20.392;2023-03-05T07:35:26;19.85;;;12.73;;
56116;SDS011;41989;45.356;20.392;2023-03-05T07:37:52;28.25;;;13.45;;
56116;SDS011;41989;45.356;20.392;2023-03-05T07:40:19;17.98;;;12.18;;
56116;SDS011;41989;45.356;20.392;2023-03-05T07:42:46;21.20;;;12.40;;
56116;SDS011;41989;45.356;20.392;2023-03-05T07:45:12;21.45;;;12.90;;
56116;SDS011;41989;45.356;20.392;2023-03-05T07:47:38;25.17;;;13.63;;
56116;SDS011;41989;45.356;20.392;2023-03-05T07:50:05;21.10;;;12.57;;
56116;SDS011;41989;45.356;20.392;2023-03-05T07:52:31;21.40;;;13.85;;
56116;SDS011;41989;45.356;20.392;2023-03-05T07:54:57;24.17;;;15.27;;
56116;SDS011;41989;45.356;20.392;2023-03-05T07:57:23;24.52;;;14.85;;
56116;SDS011;41989;45.356;20.392;2023-03-05T07:59:49;22.98;;;13.68;;
56116;SDS011;41989;45.356;20.392;2023-03-05T08:02:15;20.90;;;12.30;;
56116;SDS011;41989;45.356;20.392;2023-03-05T08:04:43;22.92;;;12.73;;
56116;SDS011;41989;45.356;20.392;2023-03-05T08:07:12;22.95;;;12.75;;
56116;SDS011;41989;45.356;20.392;2023-03-05T08:09:38;19.25;;;12.23;;
56116;SDS011;41989;45.356;20.392;2023-03-05T08:12:06;17.90;;;12.30;;
56116;SDS011;41989;45.356;20.392;2023-03-05T08:14:34;19.27;;;11.88;;
56116;SDS011;41989;45.356;20.392;2023-03-05T08:17:00;20.65;;;12.30;;
56116;SDS011;41989;45.356;20.392;2023-03-05T08:19:28;23.33;;;14.95;;
56116;SDS011;41989;45.356;20.392;2023-03-05T08:21:54;20.05;;;12.82;;
56116;SDS011;41989;45.356;20.392;2023-03-05T08:24:20;20.55;;;13.82;;
56116;SDS011;41989;45.356;20.392;2023-03-05T08:26:53;20.88;;;13.48;;
56116;SDS011;41989;45.356;20.392;2023-03-05T08:29:19;17.70;;;11.43;;
56116;SDS011;41989;45.356;20.392;2023-03-05T08:31:45;25.55;;;14.27;;
56116;SDS011;41989;45.356;20.392;2023-03-05T08:34:12;23.05;;;14.00;;
56116;SDS011;41989;45.356;20.392;2023-03-05T08:36:38;20.65;;;12.75;;
56116;SDS011;41989;45.356;20.392;2023-03-05T08:39:04;18.80;;;12.45;;
56116;SDS011;41989;45.356;20.392;2023-03-05T08:41:33;18.70;;;12.38;;
56116;SDS011;41989;45.356;20.392;2023-03-05T08:44:00;27.17;;;13.68;;
56116;SDS011;41989;45.356;20.392;2023-03-05T08:46:26;23.27;;;12.98;;
56116;SDS011;41989;45.356;20.392;2023-03-05T08:48:52;17.50;;;11.73;;
56116;SDS011;41989;45.356;20.392;2023-03-05T08:51:19;18.33;;;12.40;;
56116;SDS011;41989;45.356;20.392;2023-03-05T08:53:45;31.27;;;14.18;;
56116;SDS011;41989;45.356;20.392;2023-03-05T08:56:12;24.83;;;15.35;;
56116;SDS011;41989;45.356;20.392;2023-03-05T08:58:38;17.40;;;12.30;;
56116;SDS011;41989;45.356;20.392;2023-03-05T09:01:04;17.45;;;11.23;;
56116;SDS011;41989;45.356;20.392;2023-03-05T09:03:30;17.88;;;11.35;;
56116;SDS011;41989;45.356;20.392;2023-03-05T09:06:00;16.13;;;10.82;;
56116;SDS011;41989;45.356;20.392;2023-03-05T09:08:27;16.95;;;10.52;;
56116;SDS011;41989;45.356;20.392;2023-03-05T09:10:56;17.48;;;10.35;;
56116;SDS011;41989;45.356;20.392;2023-03-05T09:13:22;23.25;;;10.50;;
56116;SDS011;41989;45.356;20.392;2023-03-05T09:15:55;16.83;;;10.20;;
56116;SDS011;41989;45.356;20.392;2023-03-05T09:18:21;14.63;;;9.90;;
56116;SDS011;41989;45.356;20.392;2023-03-05T09:20:47;19.70;;;10.25;;
56116;SDS011;41989;45.356;20.392;2023-03-05T09:23:13;16.35;;;10.13;;
56116;SDS011;41989;45.356;20.392;2023-03-05T09:25:40;18.83;;;10.63;;
56116;SDS011;41989;45.356;20.392;2023-03-05T09:28:06;16.65;;;8.80;;
56116;SDS011;41989;45.356;20.392;2023-03-05T09:30:33;16.23;;;9.68;;
56116;SDS011;41989;45.356;20.392;2023-03-05T09:32:59;14.60;;;9.30;;
56116;SDS011;41989;45.356;20.392;2023-03-05T09:35:25;16.88;;;10.35;;
56116;SDS011;41989;45.356;20.392;2023-03-05T09:37:51;12.27;;;9.23;;
56116;SDS011;41989;45.356;20.392;2023-03-05T09:40:18;15.80;;;8.93;;
56116;SDS011;41989;45.356;20.392;2023-03-05T09:42:49;20.17;;;12.90;;
56116;SDS011;41989;45.356;20.392;2023-03-05T09:45:26;20.75;;;11.00;;
56116;SDS011;41989;45.356;20.392;2023-03-05T09:50:33;17.27;;;10.63;;
56116;SDS011;41989;45.356;20.392;2023-03-05T09:55:40;10.98;;;7.45;;
56116;SDS011;41989;45.356;20.392;2023-03-05T10:00:42;12.38;;;8.30;;
56116;SDS011;41989;45.356;20.392;2023-03-05T10:03:17;14.93;;;9.20;;
56116;SDS011;41989;45.356;20.392;2023-03-05T10:05:47;17.33;;;11.10;;
56116;SDS011;41989;45.356;20.392;2023-03-05T10:08:16;14.85;;;8.68;;
56116;SDS011;41989;45.356;20.392;2023-03-05T10:10:46;17.80;;;9.07;;
56116;SDS011;41989;45.356;20.392;2023-03-05T10:13:23;17.17;;;10.77;;
56116;SDS011;41989;45.356;20.392;2023-03-05T10:16:05;15.90;;;9.50;;
56116;SDS011;41989;45.356;20.392;2023-03-05T10:21:10;16.05;;;10.15;;
56116;SDS011;41989;45.356;20.392;2023-03-05T10:24:12;14.85;;;9.38;;
56116;SDS011;41989;45.356;20.392;2023-03-05T10:29:10;13.85;;;8.00;;
56116;SDS011;41989;45.356;20.392;2023-03-05T10:44:52;15.15;;;9.63;;
56116;SDS011;41989;45.356;20.392;2023-03-05T10:50:09;15.45;;;10.18;;
56116;SDS011;41989;45.356;20.392;2023-03-05T10:52:40;14.57;;;10.18;;
56116;SDS011;41989;45.356;20.392;2023-03-05T10:55:20;15.52;;;10.10;;
56116;SDS011;41989;45.356;20.392;2023-03-05T10:57:47;13.27;;;8.68;;
56116;SDS011;41989;45.356;20.392;2023-03-05T11:02:52;13.85;;;9.85;;
56116;SDS011;41989;45.356;20.392;2023-03-05T11:13:30;14.52;;;9.00;;
56116;SDS011;41989;45.356;20.392;2023-03-05T11:16:01;16.48;;;10.20;;
56116;SDS011;41989;45.356;20.392;2023-03-05T11:18:27;16.90;;;10.30;;
56116;SDS011;41989;45.356;20.392;2023-03-05T11:26:32;10.60;;;7.75;;
56116;SDS011;41989;45.356;20.392;2023-03-05T11:28:59;12.48;;;8.70;;
56116;SDS011;41989;45.356;20.392;2023-03-05T11:31:28;21.90;;;12.48;;
56116;SDS011;41989;45.356;20.392;2023-03-05T11:33:56;10.30;;;7.38;;
56116;SDS011;41989;45.356;20.392;2023-03-05T11:39:13;10.73;;;7.32;;
56116;SDS011;41989;45.356;20.392;2023-03-05T11:44:02;12.15;;;8.07;;
56116;SDS011;41989;45.356;20.392;2023-03-05T11:46:39;18.70;;;10.93;;
56116;SDS011;41989;45.356;20.392;2023-03-05T11:49:05;14.95;;;9.68;;
56116;SDS011;41989;45.356;20.392;2023-03-05T11:51:40;15.77;;;9.82;;
56116;SDS011;41989;45.356;20.392;2023-03-05T11:54:11;12.45;;;8.13;;
56116;SDS011;41989;45.356;20.392;2023-03-05T11:56:40;13.63;;;9.05;;
56116;SDS011;41989;45.356;20.392;2023-03-05T12:01:39;12.18;;;7.97;;
56116;SDS011;41989;45.356;20.392;2023-03-05T12:09:11;12.98;;;7.88;;
56116;SDS011;41989;45.356;20.392;2023-03-05T12:11:38;12.93;;;7.43;;
56116;SDS011;41989;45.356;20.392;2023-03-05T12:16:41;12.85;;;7.72;;
56116;SDS011;41989;45.356;20.392;2023-03-05T12:21:44;15.80;;;9.02;;
56116;SDS011;41989;45.356;20.392;2023-03-05T12:24:32;11.80;;;8.27;;
56116;SDS011;41989;45.356;20.392;2023-03-05T12:31:54;15.77;;;8.43;;
56116;SDS011;41989;45.356;20.392;2023-03-05T12:34:34;21.77;;;11.60;;
56116;SDS011;41989;45.356;20.392;2023-03-05T12:37:01;55.83;;;24.35;;
56116;SDS011;41989;45.356;20.392;2023-03-05T12:39:41;24.30;;;11.88;;
56116;SDS011;41989;45.356;20.392;2023-03-05T12:47:43;14.25;;;8.57;;
56116;SDS011;41989;45.356;20.392;2023-03-05T12:53:15;11.48;;;8.38;;
56116;SDS011;41989;45.356;20.392;2023-03-05T12:58:15;13.43;;;8.50;;
56116;SDS011;41989;45.356;20.392;2023-03-05T13:00:55;14.50;;;8.70;;
56116;SDS011;41989;45.356;20.392;2023-03-05T13:03:25;13.52;;;8.00;;
56116;SDS011;41989;45.356;20.392;2023-03-05T13:05:52;15.68;;;9.18;;
56116;SDS011;41989;45.356;20.392;2023-03-05T13:10:51;12.55;;;7.38;;
56116;SDS011;41989;45.356;20.392;2023-03-05T13:13:18;11.50;;;6.78;;
56116;SDS011;41989;45.356;20.392;2023-03-05T13:15:46;13.30;;;8.75;;
56116;SDS011;41989;45.356;20.392;2023-03-05T13:18:25;12.45;;;7.05;;
56116;SDS011;41989;45.356;20.392;2023-03-05T13:21:06;13.93;;;9.13;;
56116;SDS011;41989;45.356;20.392;2023-03-05T13:23:33;13.93;;;7.80;;
56116;SDS011;41989;45.356;20.392;2023-03-05T13:26:18;20.38;;;11.18;;
56116;SDS011;41989;45.356;20.392;2023-03-05T13:31:32;15.13;;;9.05;;
56116;SDS011;41989;45.356;20.392;2023-03-05T13:34:04;16.88;;;10.35;;
56116;SDS011;41989;45.356;20.392;2023-03-05T13:36:32;16.02;;;8.45;;
56116;SDS011;41989;45.356;20.392;2023-03-05T13:38:58;15.15;;;9.80;;
56116;SDS011;41989;45.356;20.392;2023-03-05T13:41:26;17.60;;;9.90;;
56116;SDS011;41989;45.356;20.392;2023-03-05T13:43:54;13.85;;;10.00;;
56116;SDS011;41989;45.356;20.392;2023-03-05T13:46:24;21.05;;;11.73;;
56116;SDS011;41989;45.356;20.392;2023-03-05T13:48:51;17.83;;;9.98;;
56116;SDS011;41989;45.356;20.392;2023-03-05T13:51:17;14.77;;;9.02;;
56116;SDS011;41989;45.356;20.392;2023-03-05T13:53:43;18.58;;;10.13;;
56116;SDS011;41989;45.356;20.392;2023-03-05T13:56:14;16.65;;;9.48;;
56116;SDS011;41989;45.356;20.392;2023-03-05T14:03:39;15.50;;;10.13;;
56116;SDS011;41989;45.356;20.392;2023-03-05T14:06:09;14.63;;;9.23;;
56116;SDS011;41989;45.356;20.392;2023-03-05T14:11:14;12.20;;;7.88;;
56116;SDS011;41989;45.356;20.392;2023-03-05T14:13:41;15.30;;;10.23;;
56116;SDS011;41989;45.356;20.392;2023-03-05T14:16:12;16.30;;;10.50;;
56116;SDS011;41989;45.356;20.392;2023-03-05T14:21:10;11.15;;;8.10;;
56116;SDS011;41989;45.356;20.392;2023-03-05T14:23:38;14.48;;;9.48;;
56116;SDS011;41989;45.356;20.392;2023-03-05T14:28:50;22.42;;;10.98;;
56116;SDS011;41989;45.356;20.392;2023-03-05T14:31:17;17.23;;;9.48;;
56116;SDS011;41989;45.356;20.392;2023-03-05T14:33:43;16.13;;;9.20;;
56116;SDS011;41989;45.356;20.392;2023-03-05T14:36:10;13.60;;;8.30;;
56116;SDS011;41989;45.356;20.392;2023-03-05T14:38:40;13.88;;;8.05;;
56116;SDS011;41989;45.356;20.392;2023-03-05T14:43:44;14.98;;;9.30;;
56116;SDS011;41989;45.356;20.392;2023-03-05T14:46:10;15.50;;;8.27;;
56116;SDS011;41989;45.356;20.392;2023-03-05T14:48:36;17.58;;;10.90;;
56116;SDS011;41989;45.356;20.392;2023-03-05T14:51:03;19.35;;;11.93;;
56116;SDS011;41989;45.356;20.392;2023-03-05T14:53:48;16.33;;;10.20;;
56116;SDS011;41989;45.356;20.392;2023-03-05T14:56:22;14.48;;;7.93;;
56116;SDS011;41989;45.356;20.392;2023-03-05T14:58:49;14.35;;;8.73;;
56116;SDS011;41989;45.356;20.392;2023-03-05T15:01:15;14.95;;;9.55;;
56116;SDS011;41989;45.356;20.392;2023-03-05T15:03:41;13.90;;;8.75;;
56116;SDS011;41989;45.356;20.392;2023-03-05T15:06:18;17.85;;;11.00;;
56116;SDS011;41989;45.356;20.392;2023-03-05T15:08:45;16.98;;;11.57;;
56116;SDS011;41989;45.356;20.392;2023-03-05T15:11:11;16.42;;;10.50;;
56116;SDS011;41989;45.356;20.392;2023-03-05T15:13:37;24.45;;;14.15;;
56116;SDS011;41989;45.356;20.392;2023-03-05T15:16:04;21.05;;;13.27;;
56116;SDS011;41989;45.356;20.392;2023-03-05T15:18:33;18.60;;;11.80;;
56116;SDS011;41989;45.356;20.392;2023-03-05T15:20:59;16.63;;;8.95;;
56116;SDS011;41989;45.356;20.392;2023-03-05T15:23:26;13.25;;;8.60;;
56116;SDS011;41989;45.356;20.392;2023-03-05T15:25:59;17.13;;;8.48;;
56116;SDS011;41989;45.356;20.392;2023-03-05T15:28:29;13.65;;;8.50;;
56116;SDS011;41989;45.356;20.392;2023-03-05T15:30:55;17.92;;;8.88;;
56116;SDS011;41989;45.356;20.392;2023-03-05T15:33:21;19.50;;;10.32;;
56116;SDS011;41989;45.356;20.392;2023-03-05T15:35:48;25.95;;;12.25;;
56116;SDS011;41989;45.356;20.392;2023-03-05T15:38:14;19.25;;;9.10;;
56116;SDS011;41989;45.356;20.392;2023-03-05T15:40:40;19.00;;;11.15;;
56116;SDS011;41989;45.356;20.392;2023-03-05T15:43:08;18.58;;;10.23;;
56116;SDS011;41989;45.356;20.392;2023-03-05T15:45:34;19.02;;;10.18;;
56116;SDS011;41989;45.356;20.392;2023-03-05T15:48:00;20.02;;;11.15;;
56116;SDS011;41989;45.356;20.392;2023-03-05T15:50:26;17.33;;;10.38;;
56116;SDS011;41989;45.356;20.392;2023-03-05T15:52:52;14.60;;;9.68;;
56116;SDS011;41989;45.356;20.392;2023-03-05T15:55:19;18.85;;;10.40;;
56116;SDS011;41989;45.356;20.392;2023-03-05T15:57:46;19.33;;;11.73;;
56116;SDS011;41989;45.356;20.392;2023-03-05T16:00:14;23.75;;;12.50;;